sensor_id;sensor_type;location;lat;lon;timestamp;pressure;altitude;pressure_sealevel;temperature;humidity
57990;BME280;58373;51.824;5.564;2023-07-13T00:00:24;101308.59;;;16.04;70.92
57990;BME280;58373;51.824;5.564;2023-07-13T00:02:50;101302.56;;;16.03;70.58
57990;BME280;58373;51.824;5.564;2023-07-13T00:05:18;101301.75;;;16.03;71.04
57990;BME280;58373;51.824;5.564;2023-07-13T00:07:43;101309.59;;;16.03;70.99
57990;BME280;58373;51.824;5.564;2023-07-13T00:10:11;101303.69;;;16.01;70.86
57990;BME280;58373;51.824;5.564;2023-07-13T00:12:37;101305.59;;;15.99;71.48
57990;BME280;58373;51.824;5.564;2023-07-13T00:15:04;101319.66;;;15.98;71.06
57990;BME280;58373;51.824;5.564;2023-07-13T00:17:30;101313.63;;;15.97;71.42
57990;BME280;58373;51.824;5.564;2023-07-13T00:19:55;101310.34;;;15.95;71.69
57990;BME280;58373;51.824;5.564;2023-07-13T00:22:21;101308.81;;;15.92;71.18
57990;BME280;58373;51.824;5.564;2023-07-13T00:24:46;101297.97;;;15.87;71.22
57990;BME280;58373;51.824;5.564;2023-07-13T00:27:12;101301.56;;;15.86;71.36
57990;BME280;58373;51.824;5.564;2023-07-13T00:29:37;101296.34;;;15.86;71.31
57990;BME280;58373;51.824;5.564;2023-07-13T00:32:06;101290.59;;;15.83;71.57
57990;BME280;58373;51.824;5.564;2023-07-13T00:34:31;101291.41;;;15.83;72.04
57990;BME280;58373;51.824;5.564;2023-07-13T00:36:57;101303.81;;;15.81;71.95
57990;BME280;58373;51.824;5.564;2023-07-13T00:39:22;101302.16;;;15.80;72.15
57990;BME280;58373;51.824;5.564;2023-07-13T00:41:48;101303.81;;;15.81;71.94
57990;BME280;58373;51.824;5.564;2023-07-13T00:44:14;101305.44;;;15.82;72.19
57990;BME280;58373;51.824;5.564;2023-07-13T00:46:40;101306.56;;;15.80;72.28
57990;BME280;58373;51.824;5.564;2023-07-13T00:49:06;101305.44;;;15.82;72.41
57990;BME280;58373;51.824;5.564;2023-07-13T00:51:34;101311.22;;;15.86;71.86
57990;BME280;58373;51.824;5.564;2023-07-13T00:54:03;101305.00;;;15.87;71.89
57990;BME280;58373;51.824;5.564;2023-07-13T00:56:29;101307.63;;;15.87;71.77
57990;BME280;58373;51.824;5.564;2023-07-13T00:58:55;101308.44;;;15.87;72.01
57990;BME280;58373;51.824;5.564;2023-07-13T01:01:21;101312.34;;;15.83;71.92
57990;BME280;58373;51.824;5.564;2023-07-13T01:03:46;101310.97;;;15.79;71.80
57990;BME280;58373;51.824;5.564;2023-07-13T01:06:11;101325.03;;;15.78;72.18
57990;BME280;58373;51.824;5.564;2023-07-13T01:08:37;101328.63;;;15.77;71.98
57990;BME280;58373;51.824;5.564;2023-07-13T01:11:02;101329.97;;;15.81;72.34
57990;BME280;58373;51.824;5.564;2023-07-13T01:13:27;101323.75;;;15.82;72.23
57990;BME280;58373;51.824;5.564;2023-07-13T01:15:53;101327.50;;;15.80;72.40
57990;BME280;58373;51.824;5.564;2023-07-13T01:18:23;101327.66;;;15.78;72.29
57990;BME280;58373;51.824;5.564;2023-07-13T01:20:56;101323.53;;;15.76;72.18
57990;BME280;58373;51.824;5.564;2023-07-13T01:23:22;101319.41;;;15.73;72.27
57990;BME280;58373;51.824;5.564;2023-07-13T01:25:48;101322.31;;;15.70;72.15
57990;BME280;58373;51.824;5.564;2023-07-13T01:28:13;101321.66;;;15.68;72.11
57990;BME280;58373;51.824;5.564;2023-07-13T01:30:39;101322.91;;;15.64;72.33
57990;BME280;58373;51.824;5.564;2023-07-13T01:33:05;101325.91;;;15.59;72.93
57990;BME280;58373;51.824;5.564;2023-07-13T01:35:32;101336.84;;;15.55;72.74
57990;BME280;58373;51.824;5.564;2023-07-13T01:37:57;101325.16;;;15.49;72.64
57990;BME280;58373;51.824;5.564;2023-07-13T01:40:22;101328.19;;;15.45;73.42
57990;BME280;58373;51.824;5.564;2023-07-13T01:42:47;101326.16;;;15.38;73.39
57990;BME280;58373;51.824;5.564;2023-07-13T01:45:12;101334.97;;;15.37;73.74
57990;BME280;58373;51.824;5.564;2023-07-13T01:47:38;101329.06;;;15.35;73.41
57990;BME280;58373;51.824;5.564;2023-07-13T01:50:03;101318.91;;;15.32;74.28
57990;BME280;58373;51.824;5.564;2023-07-13T01:52:28;101309.53;;;15.30;73.60
57990;BME280;58373;51.824;5.564;2023-07-13T01:54:54;101310.38;;;15.30;74.04
57990;BME280;58373;51.824;5.564;2023-07-13T01:57:19;101319.34;;;15.28;73.78
57990;BME280;58373;51.824;5.564;2023-07-13T01:59:44;101319.22;;;15.20;73.92
57990;BME280;58373;51.824;5.564;2023-07-13T02:02:09;101327.50;;;15.15;74.23
57990;BME280;58373;51.824;5.564;2023-07-13T02:04:34;101328.06;;;15.09;74.42
57990;BME280;58373;51.824;5.564;2023-07-13T02:07:00;101325.31;;;15.10;74.58
57990;BME280;58373;51.824;5.564;2023-07-13T02:09:25;101327.75;;;15.12;74.66
57990;BME280;58373;51.824;5.564;2023-07-13T02:11:50;101326.69;;;15.14;74.33
57990;BME280;58373;51.824;5.564;2023-07-13T02:14:15;101324.19;;;15.13;74.84
57990;BME280;58373;51.824;5.564;2023-07-13T02:16:40;101328.06;;;15.09;74.60
57990;BME280;58373;51.824;5.564;2023-07-13T02:19:06;101325.88;;;15.04;74.95
57990;BME280;58373;51.824;5.564;2023-07-13T02:21:31;101337.41;;;15.02;75.10
57990;BME280;58373;51.824;5.564;2023-07-13T02:23:56;101337.72;;;14.99;75.46
57990;BME280;58373;51.824;5.564;2023-07-13T02:26:22;101340.88;;;14.93;75.32
57990;BME280;58373;51.824;5.564;2023-07-13T02:28:48;101333.88;;;14.93;75.83
57990;BME280;58373;51.824;5.564;2023-07-13T02:31:13;101339.38;;;14.90;75.55
57990;BME280;58373;51.824;5.564;2023-07-13T02:33:39;101333.31;;;14.90;75.59
57990;BME280;58373;51.824;5.564;2023-07-13T02:36:04;101336.91;;;14.88;76.04
57990;BME280;58373;51.824;5.564;2023-07-13T02:38:30;101332.66;;;14.87;76.38
57990;BME280;58373;51.824;5.564;2023-07-13T02:40:58;101340.47;;;14.87;76.12
57990;BME280;58373;51.824;5.564;2023-07-13T02:43:23;101339.09;;;14.83;76.10
57990;BME280;58373;51.824;5.564;2023-07-13T02:45:48;101330.31;;;14.84;76.64
57990;BME280;58373;51.824;5.564;2023-07-13T02:48:14;101331.00;;;14.86;76.64
57990;BME280;58373;51.824;5.564;2023-07-13T02:50:39;101337.31;;;14.84;76.79
57990;BME280;58373;51.824;5.564;2023-07-13T02:53:04;101335.81;;;14.81;76.96
57990;BME280;58373;51.824;5.564;2023-07-13T02:55:29;101338.84;;;14.77;77.14
57990;BME280;58373;51.824;5.564;2023-07-13T02:57:55;101336.38;;;14.75;77.54
57990;BME280;58373;51.824;5.564;2023-07-13T03:00:20;101339.97;;;14.74;76.92
57990;BME280;58373;51.824;5.564;2023-07-13T03:02:45;101340.22;;;14.71;77.35
57990;BME280;58373;51.824;5.564;2023-07-13T03:05:10;101340.38;;;14.70;77.34
57990;BME280;58373;51.824;5.564;2023-07-13T03:07:38;101344.06;;;14.67;77.44
57990;BME280;58373;51.824;5.564;2023-07-13T03:10:03;101343.41;;;14.65;77.48
57990;BME280;58373;51.824;5.564;2023-07-13T03:12:28;101337.50;;;14.63;78.00
57990;BME280;58373;51.824;5.564;2023-07-13T03:14:54;101347.13;;;14.63;77.81
57990;BME280;58373;51.824;5.564;2023-07-13T03:17:19;101349.84;;;14.61;78.11
57990;BME280;58373;51.824;5.564;2023-07-13T03:19:44;101345.75;;;14.58;77.87
57990;BME280;58373;51.824;5.564;2023-07-13T03:22:09;101353.72;;;14.57;78.37
57990;BME280;58373;51.824;5.564;2023-07-13T03:24:35;101348.50;;;14.57;78.39
57990;BME280;58373;51.824;5.564;2023-07-13T03:27:01;101343.28;;;14.57;78.62
57990;BME280;58373;51.824;5.564;2023-07-13T03:29:26;101344.63;;;14.61;78.48
57990;BME280;58373;51.824;5.564;2023-07-13T03:31:52;101346.28;;;14.62;78.36
57990;BME280;58373;51.824;5.564;2023-07-13T03:34:17;101348.50;;;14.57;78.56
57990;BME280;58373;51.824;5.564;2023-07-13T03:36:42;101350.41;;;14.55;78.50
57990;BME280;58373;51.824;5.564;2023-07-13T03:39:08;101350.69;;;14.52;78.76
57990;BME280;58373;51.824;5.564;2023-07-13T03:41:33;101359.50;;;14.51;79.24
57990;BME280;58373;51.824;5.564;2023-07-13T03:44:05;101359.50;;;14.51;79.16
57990;BME280;58373;51.824;5.564;2023-07-13T03:46:31;101362.78;;;14.53;79.31
57990;BME280;58373;51.824;5.564;2023-07-13T03:49:08;101367.03;;;14.54;79.08
57990;BME280;58373;51.824;5.564;2023-07-13T03:51:40;101364.72;;;14.51;79.31
57990;BME280;58373;51.824;5.564;2023-07-13T03:54:11;101362.38;;;14.48;79.34
57990;BME280;58373;51.824;5.564;2023-07-13T03:56:48;101372.34;;;14.43;79.84
57990;BME280;58373;51.824;5.564;2023-07-13T03:59:22;101370.72;;;14.42;80.20
57990;BME280;58373;51.824;5.564;2023-07-13T04:02:07;101367.97;;;14.43;80.29
57990;BME280;58373;51.824;5.564;2023-07-13T04:05:00;101372.09;;;14.46;80.08
57990;BME280;58373;51.824;5.564;2023-07-13T04:07:33;101368.78;;;14.44;80.15
57990;BME280;58373;51.824;5.564;2023-07-13T04:09:58;101383.47;;;14.45;80.51
57990;BME280;58373;51.824;5.564;2023-07-13T04:12:26;101377.56;;;14.43;80.48
57990;BME280;58373;51.824;5.564;2023-07-13T04:14:54;101374.97;;;14.43;81.35
57990;BME280;58373;51.824;5.564;2023-07-13T04:17:28;101379.50;;;14.41;81.01
57990;BME280;58373;51.824;5.564;2023-07-13T04:19:56;101384.72;;;14.41;81.17
57990;BME280;58373;51.824;5.564;2023-07-13T04:22:21;101388.97;;;14.42;81.47
57990;BME280;58373;51.824;5.564;2023-07-13T04:24:49;101391.84;;;14.39;81.30
57990;BME280;58373;51.824;5.564;2023-07-13T04:30:02;101396.38;;;14.37;81.04
57990;BME280;58373;51.824;5.564;2023-07-13T04:32:28;101398.75;;;14.40;81.29
57990;BME280;58373;51.824;5.564;2023-07-13T04:34:53;101396.97;;;14.40;81.22
57990;BME280;58373;51.824;5.564;2023-07-13T04:37:23;101409.19;;;14.40;81.60
57990;BME280;58373;51.824;5.564;2023-07-13T04:39:48;101405.59;;;14.41;81.50
57990;BME280;58373;51.824;5.564;2023-07-13T04:42:13;101399.56;;;14.40;81.67
57990;BME280;58373;51.824;5.564;2023-07-13T04:44:39;101397.78;;;14.41;81.38
57990;BME280;58373;51.824;5.564;2023-07-13T04:47:04;101401.75;;;14.45;81.68
57990;BME280;58373;51.824;5.564;2023-07-13T04:49:29;101403.41;;;14.46;81.94
57990;BME280;58373;51.824;5.564;2023-07-13T04:51:55;101409.34;;;14.48;82.21
57990;BME280;58373;51.824;5.564;2023-07-13T04:54:20;101408.78;;;14.54;82.22
57990;BME280;58373;51.824;5.564;2023-07-13T04:56:46;101419.81;;;14.57;82.63
57990;BME280;58373;51.824;5.564;2023-07-13T04:59:11;101417.72;;;14.61;82.51
57990;BME280;58373;51.824;5.564;2023-07-13T05:01:37;101414.16;;;14.62;82.49
57990;BME280;58373;51.824;5.564;2023-07-13T05:04:02;101417.72;;;14.61;82.51
57990;BME280;58373;51.824;5.564;2023-07-13T05:06:27;101410.59;;;14.63;82.85
57990;BME280;58373;51.824;5.564;2023-07-13T05:11:40;101425.72;;;14.69;82.77
57990;BME280;58373;51.824;5.564;2023-07-13T05:14:05;101421.16;;;14.71;82.57
57990;BME280;58373;51.824;5.564;2023-07-13T05:16:31;101420.50;;;14.69;83.38
57990;BME280;58373;51.824;5.564;2023-07-13T05:18:57;101421.03;;;14.73;82.64
57990;BME280;58373;51.824;5.564;2023-07-13T05:21:22;101425.16;;;14.75;83.17
57990;BME280;58373;51.824;5.564;2023-07-13T05:23:47;101430.25;;;14.77;83.04
57990;BME280;58373;51.824;5.564;2023-07-13T05:26:13;101434.66;;;14.76;83.26
57990;BME280;58373;51.824;5.564;2023-07-13T05:28:38;101443.03;;;14.80;84.03
57990;BME280;58373;51.824;5.564;2023-07-13T05:31:04;101434.78;;;14.84;84.51
57990;BME280;58373;51.824;5.564;2023-07-13T05:33:29;101436.97;;;14.89;84.04
57990;BME280;58373;51.824;5.564;2023-07-13T05:35:54;101440.97;;;14.93;84.05
57990;BME280;58373;51.824;5.564;2023-07-13T05:38:20;101449.63;;;14.94;84.46
57990;BME280;58373;51.824;5.564;2023-07-13T05:40:45;101445.78;;;14.98;84.67
57990;BME280;58373;51.824;5.564;2023-07-13T05:43:11;101452.34;;;15.02;84.69
57990;BME280;58373;51.824;5.564;2023-07-13T05:45:36;101455.38;;;15.07;84.78
57990;BME280;58373;51.824;5.564;2023-07-13T05:48:01;101453.19;;;15.12;84.79
57990;BME280;58373;51.824;5.564;2023-07-13T05:50:27;101453.59;;;15.17;84.96
57990;BME280;58373;51.824;5.564;2023-07-13T05:52:52;101443.53;;;15.22;84.74
57990;BME280;58373;51.824;5.564;2023-07-13T05:55:17;101449.84;;;15.29;85.15
57990;BME280;58373;51.824;5.564;2023-07-13T05:57:43;101455.34;;;15.36;84.33
57990;BME280;58373;51.824;5.564;2023-07-13T06:00:08;101455.63;;;15.43;85.35
57990;BME280;58373;51.824;5.564;2023-07-13T06:02:33;101450.66;;;15.49;85.47
57990;BME280;58373;51.824;5.564;2023-07-13T06:04:58;101463.00;;;15.57;84.69
57990;BME280;58373;51.824;5.564;2023-07-13T06:07:24;101465.34;;;15.60;84.23
57990;BME280;58373;51.824;5.564;2023-07-13T06:09:49;101466.88;;;15.62;84.70
57990;BME280;58373;51.824;5.564;2023-07-13T06:12:14;101471.69;;;15.67;85.30
57990;BME280;58373;51.824;5.564;2023-07-13T06:14:39;101466.03;;;15.72;84.86
57990;BME280;58373;51.824;5.564;2023-07-13T06:17:04;101478.66;;;15.76;85.17
57990;BME280;58373;51.824;5.564;2023-07-13T06:19:30;101481.66;;;15.81;85.41
57990;BME280;58373;51.824;5.564;2023-07-13T06:21:55;101481.41;;;15.84;85.33
57990;BME280;58373;51.824;5.564;2023-07-13T06:24:20;101478.88;;;15.92;84.67
57990;BME280;58373;51.824;5.564;2023-07-13T06:26:45;101483.59;;;15.89;85.30
57990;BME280;58373;51.824;5.564;2023-07-13T06:29:10;101480.50;;;15.93;85.47
57990;BME280;58373;51.824;5.564;2023-07-13T06:31:36;101483.53;;;15.99;85.74
57990;BME280;58373;51.824;5.564;2023-07-13T06:34:01;101488.19;;;16.05;85.83
57990;BME280;58373;51.824;5.564;2023-07-13T06:36:26;101492.84;;;16.11;85.97
57990;BME280;58373;51.824;5.564;2023-07-13T06:38:51;101490.34;;;16.19;85.03
57990;BME280;58373;51.824;5.564;2023-07-13T06:41:16;101490.03;;;16.22;85.15
57990;BME280;58373;51.824;5.564;2023-07-13T06:43:41;101493.03;;;16.27;85.30
57990;BME280;58373;51.824;5.564;2023-07-13T06:46:07;101502.09;;;16.33;84.56
57990;BME280;58373;51.824;5.564;2023-07-13T06:48:32;101500.69;;;16.38;84.86
57990;BME280;58373;51.824;5.564;2023-07-13T06:50:58;101495.19;;;16.41;84.83
57990;BME280;58373;51.824;5.564;2023-07-13T06:53:23;101502.44;;;16.48;84.82
57990;BME280;58373;51.824;5.564;2023-07-13T06:55:48;101498.41;;;16.53;84.96
57990;BME280;58373;51.824;5.564;2023-07-13T06:58:15;101503.88;;;16.60;85.13
57990;BME280;58373;51.824;5.564;2023-07-13T07:00:40;101507.25;;;16.70;85.47
57990;BME280;58373;51.824;5.564;2023-07-13T07:03:05;101510.66;;;16.80;85.13
57990;BME280;58373;51.824;5.564;2023-07-13T07:05:30;101509.22;;;16.86;84.94
57990;BME280;58373;51.824;5.564;2023-07-13T07:07:56;101509.09;;;16.87;84.75
57990;BME280;58373;51.824;5.564;2023-07-13T07:10:21;101508.13;;;16.88;84.73
57990;BME280;58373;51.824;5.564;2023-07-13T07:12:46;101514.25;;;16.97;84.46
57990;BME280;58373;51.824;5.564;2023-07-13T07:15:12;101510.53;;;16.99;84.58
57990;BME280;58373;51.824;5.564;2023-07-13T07:17:37;101508.56;;;17.02;84.64
57990;BME280;58373;51.824;5.564;2023-07-13T07:20:03;101510.91;;;17.05;84.31
57990;BME280;58373;51.824;5.564;2023-07-13T07:22:28;101509.59;;;17.09;84.50
57990;BME280;58373;51.824;5.564;2023-07-13T07:24:55;101516.19;;;17.13;84.42
57990;BME280;58373;51.824;5.564;2023-07-13T07:27:20;101512.16;;;17.18;84.59
57990;BME280;58373;51.824;5.564;2023-07-13T07:29:51;101516.94;;;17.23;84.04
57990;BME280;58373;51.824;5.564;2023-07-13T07:32:16;101507.13;;;17.25;84.16
57990;BME280;58373;51.824;5.564;2023-07-13T07:34:42;101515.72;;;17.35;84.18
57990;BME280;58373;51.824;5.564;2023-07-13T07:37:09;101520.69;;;17.38;83.69
57990;BME280;58373;51.824;5.564;2023-07-13T07:39:35;101510.19;;;17.38;84.04
57990;BME280;58373;51.824;5.564;2023-07-13T07:42:00;101525.59;;;17.41;83.95
57990;BME280;58373;51.824;5.564;2023-07-13T07:44:26;101522.69;;;17.44;84.15
57990;BME280;58373;51.824;5.564;2023-07-13T07:46:52;101521.38;;;17.48;84.02
57990;BME280;58373;51.824;5.564;2023-07-13T07:49:17;101513.06;;;17.53;83.88
57990;BME280;58373;51.824;5.564;2023-07-13T07:51:42;101521.00;;;17.61;83.55
57990;BME280;58373;51.824;5.564;2023-07-13T07:54:07;101516.78;;;17.68;83.52
57990;BME280;58373;51.824;5.564;2023-07-13T07:56:32;101508.16;;;17.76;83.44
57990;BME280;58373;51.824;5.564;2023-07-13T07:58:57;101496.66;;;17.77;83.10
57990;BME280;58373;51.824;5.564;2023-07-13T08:01:23;101499.72;;;17.90;83.14
57990;BME280;58373;51.824;5.564;2023-07-13T08:03:48;101512.56;;;18.01;83.09
57990;BME280;58373;51.824;5.564;2023-07-13T08:06:13;101515.56;;;18.15;82.44
57990;BME280;58373;51.824;5.564;2023-07-13T08:08:38;101518.91;;;18.25;82.02
57990;BME280;58373;51.824;5.564;2023-07-13T08:11:05;101522.53;;;18.32;82.05
57990;BME280;58373;51.824;5.564;2023-07-13T08:13:30;101528.81;;;18.47;81.27
57990;BME280;58373;51.824;5.564;2023-07-13T08:15:55;101519.97;;;18.48;81.13
57990;BME280;58373;51.824;5.564;2023-07-13T08:18:21;101528.53;;;18.58;80.95
57990;BME280;58373;51.824;5.564;2023-07-13T08:20:46;101518.03;;;18.67;80.42
57990;BME280;58373;51.824;5.564;2023-07-13T08:23:11;101513.97;;;18.72;80.08
57990;BME280;58373;51.824;5.564;2023-07-13T08:25:36;101512.81;;;18.75;79.30
57990;BME280;58373;51.824;5.564;2023-07-13T08:28:02;101532.53;;;18.79;79.24
57990;BME280;58373;51.824;5.564;2023-07-13T08:30:28;101525.50;;;18.88;79.16
57990;BME280;58373;51.824;5.564;2023-07-13T08:32:53;101523.03;;;19.02;78.74
57990;BME280;58373;51.824;5.564;2023-07-13T08:35:18;101519.75;;;19.00;77.06
57990;BME280;58373;51.824;5.564;2023-07-13T08:37:43;101517.78;;;19.02;77.10
57990;BME280;58373;51.824;5.564;2023-07-13T08:40:10;101515.16;;;19.10;76.76
57990;BME280;58373;51.824;5.564;2023-07-13T08:42:45;101523.03;;;19.19;76.50
57990;BME280;58373;51.824;5.564;2023-07-13T08:47:37;101507.25;;;19.51;75.42
57990;BME280;58373;51.824;5.564;2023-07-13T08:50:04;101518.09;;;19.73;74.35
57990;BME280;58373;51.824;5.564;2023-07-13T08:52:34;101512.28;;;19.85;74.85
57990;BME280;58373;51.824;5.564;2023-07-13T08:55:04;101507.16;;;19.92;73.97
57990;BME280;58373;51.824;5.564;2023-07-13T08:57:31;101520.63;;;20.05;72.50
57990;BME280;58373;51.824;5.564;2023-07-13T08:59:58;101515.97;;;20.15;72.67
57990;BME280;58373;51.824;5.564;2023-07-13T09:02:27;101516.16;;;20.14;72.44
57990;BME280;58373;51.824;5.564;2023-07-13T09:04:59;101522.25;;;20.06;71.42
57990;BME280;58373;51.824;5.564;2023-07-13T09:14:52;101526.00;;;19.65;73.05
57990;BME280;58373;51.824;5.564;2023-07-13T09:17:19;101532.88;;;19.57;72.85
57990;BME280;58373;51.824;5.564;2023-07-13T09:19:46;101532.22;;;19.47;73.44
57990;BME280;58373;51.824;5.564;2023-07-13T09:22:13;101532.22;;;19.47;73.40
57990;BME280;58373;51.824;5.564;2023-07-13T09:24:45;101541.63;;;19.50;73.41
57990;BME280;58373;51.824;5.564;2023-07-13T09:27:19;101540.44;;;19.52;73.51
57990;BME280;58373;51.824;5.564;2023-07-13T09:29:46;101540.44;;;19.52;73.17
57990;BME280;58373;51.824;5.564;2023-07-13T09:32:12;101531.91;;;19.50;73.30
57990;BME280;58373;51.824;5.564;2023-07-13T09:34:39;101526.97;;;19.47;73.01
57990;BME280;58373;51.824;5.564;2023-07-13T09:37:04;101533.22;;;19.54;73.60
57990;BME280;58373;51.824;5.564;2023-07-13T09:39:35;101531.25;;;19.56;73.26
57990;BME280;58373;51.824;5.564;2023-07-13T09:44:58;101531.91;;;19.50;73.47
57990;BME280;58373;51.824;5.564;2023-07-13T09:47:23;101541.44;;;19.35;73.46
57990;BME280;58373;51.824;5.564;2023-07-13T09:49:54;101535.88;;;19.30;74.08
57990;BME280;58373;51.824;5.564;2023-07-13T09:52:20;101538.16;;;19.25;74.14
57990;BME280;58373;51.824;5.564;2023-07-13T09:54:48;101542.59;;;19.24;74.62
57990;BME280;58373;51.824;5.564;2023-07-13T09:57:18;101545.06;;;19.26;74.67
57990;BME280;58373;51.824;5.564;2023-07-13T09:59:44;101538.81;;;19.35;75.41
57990;BME280;58373;51.824;5.564;2023-07-13T10:04:53;101539.16;;;19.65;75.89
57990;BME280;58373;51.824;5.564;2023-07-13T10:07:22;101547.34;;;19.86;74.90
57990;BME280;58373;51.824;5.564;2023-07-13T10:09:47;101546.00;;;19.98;74.54
57990;BME280;58373;51.824;5.564;2023-07-13T10:12:16;101541.69;;;20.05;74.08
57990;BME280;58373;51.824;5.564;2023-07-13T10:14:42;101539.09;;;19.97;73.62
57990;BME280;58373;51.824;5.564;2023-07-13T10:17:08;101542.72;;;19.96;73.46
57990;BME280;58373;51.824;5.564;2023-07-13T10:19:35;101546.63;;;20.08;73.59
57990;BME280;58373;51.824;5.564;2023-07-13T10:22:02;101548.19;;;20.26;73.31
57990;BME280;58373;51.824;5.564;2023-07-13T10:24:35;101556.75;;;20.28;71.89
57990;BME280;58373;51.824;5.564;2023-07-13T10:27:20;101565.97;;;20.24;72.90
57990;BME280;58373;51.824;5.564;2023-07-13T10:32:34;101572.31;;;19.98;72.36
57990;BME280;58373;51.824;5.564;2023-07-13T10:34:59;101576.63;;;19.91;72.91
57990;BME280;58373;51.824;5.564;2023-07-13T10:37:26;101576.94;;;19.88;72.50
57990;BME280;58373;51.824;5.564;2023-07-13T10:39:52;101577.28;;;19.77;72.50
57990;BME280;58373;51.824;5.564;2023-07-13T10:42:29;101584.53;;;19.75;72.34
57990;BME280;58373;51.824;5.564;2023-07-13T10:44:56;101593.41;;;19.57;72.17
57990;BME280;58373;51.824;5.564;2023-07-13T10:47:21;101598.00;;;19.55;72.72
57990;BME280;58373;51.824;5.564;2023-07-13T10:49:47;101604.59;;;19.51;72.69
57990;BME280;58373;51.824;5.564;2023-07-13T10:55:02;101599.97;;;19.37;73.46
57990;BME280;58373;51.824;5.564;2023-07-13T10:57:28;101598.47;;;19.26;73.66
57990;BME280;58373;51.824;5.564;2023-07-13T11:02:37;101589.44;;;19.21;74.71
57990;BME280;58373;51.824;5.564;2023-07-13T11:08:02;101598.03;;;19.39;74.91
57990;BME280;58373;51.824;5.564;2023-07-13T11:13:35;101595.25;;;19.73;76.69
57990;BME280;58373;51.824;5.564;2023-07-13T11:15:56;101599.97;;;19.94;76.50
57990;BME280;58373;51.824;5.564;2023-07-13T11:18:23;101595.66;;;20.09;76.00
57990;BME280;58373;51.824;5.564;2023-07-13T11:20:50;101588.72;;;20.25;75.47
57990;BME280;58373;51.824;5.564;2023-07-13T11:25:41;101588.94;;;20.54;75.21
57990;BME280;58373;51.824;5.564;2023-07-13T11:30:39;101596.81;;;20.62;73.75
57990;BME280;58373;51.824;5.564;2023-07-13T11:33:13;101597.50;;;20.56;73.68
57990;BME280;58373;51.824;5.564;2023-07-13T11:36:01;101597.50;;;20.56;73.71
57990;BME280;58373;51.824;5.564;2023-07-13T11:38:30;101589.56;;;20.64;73.58
57990;BME280;58373;51.824;5.564;2023-07-13T11:40:56;101583.22;;;20.82;73.56
57990;BME280;58373;51.824;5.564;2023-07-13T11:43:24;101585.78;;;20.90;72.38
57990;BME280;58373;51.824;5.564;2023-07-13T11:45:50;101569.56;;;21.01;71.15
57990;BME280;58373;51.824;5.564;2023-07-13T11:50:48;101580.34;;;21.14;69.66
57990;BME280;58373;51.824;5.564;2023-07-13T11:53:14;101590.47;;;21.26;70.33
57990;BME280;58373;51.824;5.564;2023-07-13T11:55:40;101592.09;;;21.35;70.50
57990;BME280;58373;51.824;5.564;2023-07-13T11:58:05;101586.13;;;21.41;69.25
57990;BME280;58373;51.824;5.564;2023-07-13T12:00:31;101585.28;;;21.40;69.75
57990;BME280;58373;51.824;5.564;2023-07-13T12:02:59;101574.84;;;21.47;66.02
57990;BME280;58373;51.824;5.564;2023-07-13T12:05:25;101584.00;;;21.36;67.05
57990;BME280;58373;51.824;5.564;2023-07-13T12:07:51;101580.84;;;21.41;65.24
57990;BME280;58373;51.824;5.564;2023-07-13T12:10:18;101575.66;;;21.25;65.33
57990;BME280;58373;51.824;5.564;2023-07-13T12:12:47;101572.97;;;21.33;64.85
57990;BME280;58373;51.824;5.564;2023-07-13T12:15:13;101579.41;;;21.53;64.83
57990;BME280;58373;51.824;5.564;2023-07-13T12:17:38;101578.59;;;21.53;63.90
57990;BME280;58373;51.824;5.564;2023-07-13T12:20:10;101576.34;;;21.64;62.35
57990;BME280;58373;51.824;5.564;2023-07-13T12:22:39;101587.47;;;21.74;63.07
57990;BME280;58373;51.824;5.564;2023-07-13T12:25:11;101580.75;;;21.87;61.91
57990;BME280;58373;51.824;5.564;2023-07-13T12:27:36;101578.00;;;21.95;61.30
57990;BME280;58373;51.824;5.564;2023-07-13T12:30:03;101576.22;;;22.10;61.54
57990;BME280;58373;51.824;5.564;2023-07-13T12:32:30;101579.13;;;22.15;59.82
57990;BME280;58373;51.824;5.564;2023-07-13T12:34:56;101591.13;;;22.03;57.88
57990;BME280;58373;51.824;5.564;2023-07-13T12:37:22;101587.19;;;21.84;58.16
57990;BME280;58373;51.824;5.564;2023-07-13T12:39:48;101580.75;;;21.87;57.93
57990;BME280;58373;51.824;5.564;2023-07-13T12:42:27;101585.09;;;21.80;59.70
57990;BME280;58373;51.824;5.564;2023-07-13T12:44:57;101593.59;;;22.05;58.21
57990;BME280;58373;51.824;5.564;2023-07-13T12:47:23;101592.22;;;21.94;58.72
57990;BME280;58373;51.824;5.564;2023-07-13T12:49:55;101587.84;;;22.01;58.32
57990;BME280;58373;51.824;5.564;2023-07-13T12:52:22;101584.56;;;21.99;54.50
57990;BME280;58373;51.824;5.564;2023-07-13T12:54:57;101588.28;;;21.90;54.44
57990;BME280;58373;51.824;5.564;2023-07-13T12:57:23;101577.72;;;21.75;55.89
57990;BME280;58373;51.824;5.564;2023-07-13T12:59:51;101582.75;;;21.99;54.71
57990;BME280;58373;51.824;5.564;2023-07-13T13:02:21;101583.50;;;22.08;54.47
57990;BME280;58373;51.824;5.564;2023-07-13T13:04:48;101582.41;;;22.03;55.57
57990;BME280;58373;51.824;5.564;2023-07-13T13:07:13;101593.34;;;22.14;54.13
57990;BME280;58373;51.824;5.564;2023-07-13T13:09:38;101590.06;;;22.12;55.48
57990;BME280;58373;51.824;5.564;2023-07-13T13:12:03;101590.59;;;22.22;54.05
57990;BME280;58373;51.824;5.564;2023-07-13T13:14:30;101583.84;;;22.05;55.84
57990;BME280;58373;51.824;5.564;2023-07-13T13:16:55;101590.25;;;22.11;56.08
57990;BME280;58373;51.824;5.564;2023-07-13T13:19:26;101589.75;;;22.07;54.99
57990;BME280;58373;51.824;5.564;2023-07-13T13:21:52;101598.50;;;22.08;55.52
57990;BME280;58373;51.824;5.564;2023-07-13T13:24:19;101587.34;;;22.20;55.27
57990;BME280;58373;51.824;5.564;2023-07-13T13:26:45;101594.16;;;22.30;54.81
57990;BME280;58373;51.824;5.564;2023-07-13T13:29:20;101599.28;;;22.31;54.85